Time,TemperatureF,DewpointF,PressureIn,WindDirection,WindDirectionDegrees,WindSpeedMPH,WindSpeedGustMPH,Humidity,HourlyPrecipIn,Conditions,Clouds,dailyrainin,SoftwareType,DateUTC
2013-02-23 00:01:00,34.0,31.0,-100.00,WSW,250,0.0,2.0,89,-99.99,,,-99.99,,2013-02-23 09:01:00,
2013-02-23 00:11:00,34.0,31.0,-100.00,WSW,250,0.0,2.0,89,-99.99,,,-99.99,,2013-02-23 09:11:00,
2013-02-23 00:21:00,33.0,31.0,-100.00,NW,325,1.0,1.0,89,-99.99,,,-99.99,,2013-02-23 09:21:00,
2013-02-23 00:32:00,33.0,31.0,-100.00,NW,325,1.0,1.0,89,-99.99,,,-99.99,,2013-02-23 09:32:00,
2013-02-23 00:42:00,33.0,31.0,-100.00,NW,325,1.0,1.0,89,-99.99,,,-99.99,,2013-02-23 09:42:00,
2013-02-23 00:52:00,33.0,31.0,-100.00,NW,310,0.0,3.0,89,-99.99,,,-99.99,,2013-02-23 09:52:00,
2013-02-23 01:01:00,33.0,31.0,-100.00,NW,310,0.0,3.0,89,-99.99,,,-99.99,,2013-02-23 10:01:00,
2013-02-23 01:11:00,33.0,31.0,-100.00,NW,310,0.0,3.0,89,-99.99,,,-99.99,,2013-02-23 10:11:00,
2013-02-23 01:21:00,33.0,30.0,-100.00,ESE,115,4.0,7.0,89,-99.99,,,-99.99,,2013-02-23 10:21:00,
2013-02-23 01:32:00,33.0,30.0,-100.00,ESE,115,4.0,7.0,89,-99.99,,,-99.99,,2013-02-23 10:32:00,
2013-02-23 01:42:00,33.0,30.0,-100.00,ESE,115,4.0,7.0,89,-99.99,,,-99.99,,2013-02-23 10:42:00,
2013-02-23 01:52:00,33.0,30.0,-100.00,North,0,1.0,4.0,89,-99.99,,,-99.99,,2013-02-23 10:52:00,
2013-02-23 02:01:00,33.0,30.0,-100.00,North,0,1.0,4.0,89,-99.99,,,-99.99,,2013-02-23 11:01:00,
2013-02-23 02:11:00,33.0,30.0,-100.00,North,0,1.0,4.0,89,-99.99,,,-99.99,,2013-02-23 11:11:00,
2013-02-23 02:21:00,33.0,30.0,-100.00,SSE,160,0.0,1.0,89,-99.99,,,-99.99,,2013-02-23 11:21:00,
2013-02-23 02:32:00,33.0,30.0,-100.00,SSE,160,0.0,1.0,89,-99.99,,,-99.99,,2013-02-23 11:32:00,
2013-02-23 02:42:00,33.0,30.0,-100.00,SSE,160,0.0,1.0,89,-99.99,,,-99.99,,2013-02-23 11:42:00,
2013-02-23 02:52:00,33.0,30.0,-100.00,SSW,205,0.0,0.0,89,-99.99,,,-99.99,,2013-02-23 11:52:00,
2013-02-23 03:01:00,33.0,30.0,-100.00,SSW,205,0.0,0.0,89,-99.99,,,-99.99,,2013-02-23 12:01:00,
2013-02-23 03:11:00,33.0,30.0,-100.00,SSW,205,0.0,0.0,89,-99.99,,,-99.99,,2013-02-23 12:11:00,
2013-02-23 03:21:00,32.0,29.0,-100.00,SSE,160,1.0,7.0,89,-99.99,,,-99.99,,2013-02-23 12:21:00,
2013-02-23 03:32:00,32.0,29.0,-100.00,SSE,160,1.0,7.0,89,-99.99,,,-99.99,,2013-02-23 12:32:00,
2013-02-23 03:42:00,32.0,29.0,-100.00,SSE,160,1.0,7.0,89,-99.99,,,-99.99,,2013-02-23 12:42:00,
2013-02-23 03:52:00,32.0,29.0,-100.00,ESE,120,3.0,9.0,89,-99.99,,,-99.99,,2013-02-23 12:52:00,
2013-02-23 04:01:00,32.0,29.0,-100.00,ESE,120,3.0,9.0,89,-99.99,,,-99.99,,2013-02-23 13:01:00,
2013-02-23 04:11:00,32.0,29.0,-100.00,ESE,120,3.0,9.0,89,-99.99,,,-99.99,,2013-02-23 13:11:00,
2013-02-23 04:22:00,33.0,29.0,-100.00,ESE,115,3.0,5.0,88,-99.99,,,-99.99,,2013-02-23 13:22:00,
2013-02-23 04:32:00,33.0,29.0,-100.00,ESE,115,3.0,5.0,88,-99.99,,,-99.99,,2013-02-23 13:32:00,
2013-02-23 04:41:00,33.0,29.0,-100.00,ESE,110,3.0,9.0,83,-99.99,,,-99.99,,2013-02-23 13:41:00,
2013-02-23 04:42:00,33.0,29.0,-100.00,ESE,115,3.0,5.0,88,-99.99,,,-99.99,,2013-02-23 13:42:00,
2013-02-23 04:52:00,33.0,29.0,-100.00,ESE,120,6.0,11.0,85,-99.99,,,-99.99,,2013-02-23 13:52:00,
2013-02-23 05:01:00,33.0,29.0,-100.00,ESE,120,6.0,11.0,85,-99.99,,,-99.99,,2013-02-23 14:01:00,
2013-02-23 05:11:00,33.0,29.0,-100.00,ESE,120,6.0,11.0,85,-99.99,,,-99.99,,2013-02-23 14:11:00,
2013-02-23 05:21:00,33.0,29.0,-100.00,ESE,110,3.0,9.0,83,-99.99,,,-99.99,,2013-02-23 14:21:00,
2013-02-23 05:32:00,33.0,29.0,-100.00,ESE,110,3.0,9.0,83,-99.99,,,-99.99,,2013-02-23 14:32:00,
2013-02-23 05:52:00,33.0,27.0,-100.00,ESE,110,6.0,10.0,78,-99.99,,,-99.99,,2013-02-23 14:52:00,
2013-02-23 06:01:00,33.0,27.0,-100.00,ESE,110,6.0,10.0,78,-99.99,,,-99.99,,2013-02-23 15:01:00,
2013-02-23 06:11:00,33.0,27.0,-100.00,ESE,110,6.0,10.0,78,-99.99,,,-99.99,,2013-02-23 15:11:00,
2013-02-23 06:21:00,33.0,27.0,-100.00,ESE,115,6.0,9.0,79,-99.99,,,-99.99,,2013-02-23 15:21:00,
2013-02-23 06:31:00,33.0,27.0,-100.00,ESE,115,6.0,9.0,79,-99.99,,,-99.99,,2013-02-23 15:31:00,
2013-02-23 06:41:00,33.0,27.0,-100.00,ESE,115,6.0,9.0,79,-99.99,,,-99.99,,2013-02-23 15:41:00,
2013-02-23 06:51:00,33.0,27.0,-100.00,ESE,110,6.0,12.0,75,-99.99,,,-99.99,,2013-02-23 15:51:00,
2013-02-23 07:01:00,33.0,27.0,-100.00,ESE,110,6.0,12.0,75,-99.99,,,-99.99,,2013-02-23 16:01:00,
2013-02-23 07:11:00,33.0,27.0,-100.00,ESE,110,6.0,12.0,75,-99.99,,,-99.99,,2013-02-23 16:11:00,
2013-02-23 07:21:00,33.0,26.0,-100.00,ESE,120,8.0,12.0,75,-99.99,,,-99.99,,2013-02-23 16:21:00,
2013-02-23 07:31:00,33.0,26.0,-100.00,ESE,120,8.0,12.0,75,-99.99,,,-99.99,,2013-02-23 16:31:00,
2013-02-23 07:42:00,33.0,26.0,-100.00,ESE,120,8.0,12.0,75,-99.99,,,-99.99,,2013-02-23 16:42:00,
2013-02-23 07:51:00,33.0,26.0,-100.00,ESE,115,6.0,11.0,74,-99.99,,,-99.99,,2013-02-23 16:51:00,
2013-02-23 08:01:00,33.0,26.0,-100.00,ESE,115,6.0,11.0,74,-99.99,,,-99.99,,2013-02-23 17:01:00,
2013-02-23 08:11:00,33.0,26.0,-100.00,ESE,115,6.0,11.0,74,-99.99,,,-99.99,,2013-02-23 17:11:00,
2013-02-23 08:21:00,34.0,25.0,-100.00,ESE,120,6.0,11.0,70,-99.99,,,-99.99,,2013-02-23 17:21:00,
2013-02-23 08:31:00,34.0,25.0,-100.00,ESE,120,6.0,11.0,70,-99.99,,,-99.99,,2013-02-23 17:31:00,
2013-02-23 08:41:00,34.0,25.0,-100.00,ESE,120,6.0,11.0,70,-99.99,,,-99.99,,2013-02-23 17:41:00,
2013-02-23 08:52:00,34.0,25.0,-100.00,SE,125,8.0,13.0,70,-99.99,,,-99.99,,2013-02-23 17:52:00,
2013-02-23 09:01:00,34.0,25.0,-100.00,SE,125,8.0,13.0,70,-99.99,,,-99.99,,2013-02-23 18:01:00,
2013-02-23 09:12:00,34.0,25.0,-100.00,SE,125,8.0,13.0,70,-99.99,,,-99.99,,2013-02-23 18:12:00,
2013-02-23 09:21:00,34.0,25.0,-100.00,ESE,120,7.0,12.0,68,-99.99,,,-99.99,,2013-02-23 18:21:00,
2013-02-23 09:31:00,34.0,25.0,-100.00,ESE,120,7.0,12.0,68,-99.99,,,-99.99,,2013-02-23 18:31:00,
2013-02-23 09:41:00,34.0,25.0,-100.00,ESE,120,7.0,12.0,68,-99.99,,,-99.99,,2013-02-23 18:41:00,
2013-02-23 09:51:00,34.0,27.0,-100.00,ESE,115,7.0,12.0,76,-99.99,,,-99.99,,2013-02-23 18:51:00,
2013-02-23 10:01:00,34.0,27.0,-100.00,ESE,115,7.0,12.0,76,-99.99,,,-99.99,,2013-02-23 19:01:00,
2013-02-23 10:11:00,34.0,27.0,-100.00,ESE,115,7.0,12.0,76,-99.99,,,-99.99,,2013-02-23 19:11:00,
2013-02-23 10:21:00,34.0,28.0,-100.00,ESE,115,7.0,12.0,80,-99.99,,,-99.99,,2013-02-23 19:21:00,
2013-02-23 10:32:00,34.0,28.0,-100.00,ESE,115,7.0,12.0,80,-99.99,,,-99.99,,2013-02-23 19:32:00,
2013-02-23 10:41:00,34.0,28.0,-100.00,ESE,115,7.0,12.0,80,-99.99,,,-99.99,,2013-02-23 19:41:00,
2013-02-23 10:51:00,34.0,29.0,-100.00,ESE,115,9.0,14.0,80,-99.99,,,-99.99,,2013-02-23 19:51:00,
2013-02-23 11:01:00,34.0,29.0,-100.00,ESE,115,9.0,14.0,80,-99.99,,,-99.99,,2013-02-23 20:01:00,
2013-02-23 11:11:00,34.0,29.0,-100.00,ESE,115,9.0,14.0,80,-99.99,,,-99.99,,2013-02-23 20:11:00,
2013-02-23 11:21:00,34.0,29.0,-100.00,ESE,120,9.0,17.0,81,-99.99,,,-99.99,,2013-02-23 20:21:00,
2013-02-23 11:31:00,34.0,29.0,-100.00,ESE,120,9.0,17.0,81,-99.99,,,-99.99,,2013-02-23 20:31:00,
2013-02-23 11:41:00,34.0,29.0,-100.00,ESE,120,9.0,17.0,81,-99.99,,,-99.99,,2013-02-23 20:41:00,
2013-02-23 11:52:00,34.0,30.0,-100.00,ESE,115,11.0,21.0,83,-99.99,,,-99.99,,2013-02-23 20:52:00,
2013-02-23 12:01:00,34.0,30.0,-100.00,ESE,115,11.0,21.0,83,-99.99,,,-99.99,,2013-02-23 21:01:00,
2013-02-23 12:11:00,34.0,30.0,-100.00,ESE,115,11.0,21.0,83,-99.99,,,-99.99,,2013-02-23 21:11:00,
2013-02-23 12:22:00,34.0,30.0,-100.00,ESE,115,12.0,21.0,85,-99.99,,,-99.99,,2013-02-23 21:22:00,
2013-02-23 12:31:00,34.0,30.0,-100.00,ESE,115,12.0,21.0,85,-99.99,,,-99.99,,2013-02-23 21:31:00,
2013-02-23 12:41:00,34.0,30.0,-100.00,ESE,115,12.0,21.0,85,-99.99,,,-99.99,,2013-02-23 21:41:00,
2013-02-23 12:51:00,34.0,30.0,-100.00,ESE,115,11.0,22.0,86,-99.99,,,-99.99,,2013-02-23 21:51:00,
2013-02-23 13:01:00,34.0,30.0,-100.00,ESE,115,11.0,22.0,86,-99.99,,,-99.99,,2013-02-23 22:01:00,
2013-02-23 13:11:00,34.0,30.0,-100.00,ESE,115,11.0,22.0,86,-99.99,,,-99.99,,2013-02-23 22:11:00,
2013-02-23 13:21:00,34.0,30.0,-100.00,ESE,115,10.0,21.0,86,-99.99,,,-99.99,,2013-02-23 22:21:00,
2013-02-23 13:31:00,34.0,30.0,-100.00,ESE,115,10.0,21.0,86,-99.99,,,-99.99,,2013-02-23 22:31:00,
2013-02-23 13:41:00,34.0,30.0,-100.00,ESE,115,10.0,21.0,86,-99.99,,,-99.99,,2013-02-23 22:41:00,
2013-02-23 13:52:00,33.0,30.0,-100.00,ESE,110,11.0,24.0,87,-99.99,,,-99.99,,2013-02-23 22:52:00,
2013-02-23 14:01:00,33.0,30.0,-100.00,ESE,110,11.0,24.0,87,-99.99,,,-99.99,,2013-02-23 23:01:00,
2013-02-23 14:11:00,33.0,30.0,-100.00,ESE,110,11.0,24.0,87,-99.99,,,-99.99,,2013-02-23 23:11:00,
2013-02-23 14:21:00,33.0,30.0,-100.00,ESE,110,12.0,22.0,87,-99.99,,,-99.99,,2013-02-23 23:21:00,
2013-02-23 14:31:00,33.0,30.0,-100.00,ESE,110,12.0,22.0,87,-99.99,,,-99.99,,2013-02-23 23:31:00,
2013-02-23 14:41:00,33.0,30.0,-100.00,ESE,110,12.0,22.0,87,-99.99,,,-99.99,,2013-02-23 23:41:00,
2013-02-23 14:52:00,33.0,30.0,-100.00,ESE,115,11.0,22.0,88,-99.99,,,-99.99,,2013-02-23 23:52:00,
2013-02-23 15:01:00,33.0,30.0,-100.00,ESE,115,11.0,22.0,88,-99.99,,,-99.99,,2013-02-24 00:01:00,
2013-02-23 15:11:00,33.0,30.0,-100.00,ESE,115,11.0,22.0,88,-99.99,,,-99.99,,2013-02-24 00:11:00,
2013-02-23 15:22:00,33.0,30.0,-100.00,ESE,115,12.0,25.0,89,-99.99,,,-99.99,,2013-02-24 00:22:00,
2013-02-23 15:32:00,33.0,30.0,-100.00,ESE,115,12.0,25.0,89,-99.99,,,-99.99,,2013-02-24 00:32:00,
2013-02-23 15:42:00,33.0,30.0,-100.00,ESE,115,12.0,25.0,89,-99.99,,,-99.99,,2013-02-24 00:42:00,
2013-02-23 15:52:00,33.0,30.0,-100.00,ESE,115,13.0,26.0,89,-99.99,,,-99.99,,2013-02-24 00:52:00,
2013-02-23 16:01:00,33.0,30.0,-100.00,ESE,115,13.0,26.0,89,-99.99,,,-99.99,,2013-02-24 01:01:00,
2013-02-23 16:11:00,33.0,30.0,-100.00,ESE,115,13.0,26.0,89,-99.99,,,-99.99,,2013-02-24 01:11:00,
2013-02-23 16:22:00,33.0,30.0,-100.00,ESE,120,12.0,22.0,89,-99.99,,,-99.99,,2013-02-24 01:22:00,
2013-02-23 16:32:00,33.0,30.0,-100.00,ESE,120,12.0,22.0,89,-99.99,,,-99.99,,2013-02-24 01:32:00,
2013-02-23 16:42:00,33.0,30.0,-100.00,ESE,120,12.0,22.0,89,-99.99,,,-99.99,,2013-02-24 01:42:00,
2013-02-23 16:52:00,33.0,30.0,-100.00,ESE,105,8.0,15.0,89,-99.99,,,-99.99,,2013-02-24 01:52:00,
2013-02-23 17:01:00,33.0,30.0,-100.00,ESE,105,8.0,15.0,89,-99.99,,,-99.99,,2013-02-24 02:01:00,
2013-02-23 17:11:00,33.0,30.0,-100.00,ESE,105,8.0,15.0,89,-99.99,,,-99.99,,2013-02-24 02:11:00,
2013-02-23 17:21:00,33.0,30.0,-100.00,ESE,120,9.0,16.0,89,-99.99,,,-99.99,,2013-02-24 02:21:00,
2013-02-23 17:31:00,33.0,30.0,-100.00,ESE,120,9.0,16.0,89,-99.99,,,-99.99,,2013-02-24 02:31:00,
2013-02-23 17:41:00,33.0,30.0,-100.00,ESE,120,9.0,16.0,89,-99.99,,,-99.99,,2013-02-24 02:41:00,
2013-02-23 17:52:00,33.0,31.0,-100.00,ESE,115,6.0,16.0,89,-99.99,,,-99.99,,2013-02-24 02:52:00,
2013-02-23 18:01:00,33.0,31.0,-100.00,ESE,115,6.0,16.0,89,-99.99,,,-99.99,,2013-02-24 03:01:00,
2013-02-23 18:11:00,33.0,31.0,-100.00,ESE,115,6.0,16.0,89,-99.99,,,-99.99,,2013-02-24 03:11:00,
2013-02-23 18:21:00,33.0,31.0,-100.00,ESE,105,6.0,14.0,89,-99.99,,,-99.99,,2013-02-24 03:21:00,
2013-02-23 18:31:00,33.0,31.0,-100.00,ESE,105,6.0,14.0,89,-99.99,,,-99.99,,2013-02-24 03:31:00,
2013-02-23 18:42:00,33.0,31.0,-100.00,ESE,105,6.0,14.0,89,-99.99,,,-99.99,,2013-02-24 03:42:00,
2013-02-23 18:52:00,34.0,31.0,-100.00,ESE,110,9.0,16.0,90,-99.99,,,-99.99,,2013-02-24 03:52:00,
2013-02-23 19:01:00,34.0,31.0,-100.00,ESE,110,9.0,16.0,90,-99.99,,,-99.99,,2013-02-24 04:01:00,
2013-02-23 19:11:00,34.0,31.0,-100.00,ESE,110,9.0,16.0,90,-99.99,,,-99.99,,2013-02-24 04:11:00,
2013-02-23 19:21:00,33.0,31.0,-100.00,ESE,120,4.0,7.0,90,-99.99,,,-99.99,,2013-02-24 04:21:00,
2013-02-23 19:32:00,33.0,31.0,-100.00,ESE,120,4.0,7.0,90,-99.99,,,-99.99,,2013-02-24 04:32:00,
2013-02-23 19:42:00,33.0,31.0,-100.00,ESE,120,4.0,7.0,90,-99.99,,,-99.99,,2013-02-24 04:42:00,
2013-02-23 19:52:00,34.0,31.0,-100.00,ESE,110,5.0,12.0,90,-99.99,,,-99.99,,2013-02-24 04:52:00,
2013-02-23 20:01:00,34.0,31.0,-100.00,ESE,110,5.0,12.0,90,-99.99,,,-99.99,,2013-02-24 05:01:00,
2013-02-23 20:11:00,34.0,31.0,-100.00,ESE,110,5.0,12.0,90,-99.99,,,-99.99,,2013-02-24 05:11:00,
2013-02-23 20:21:00,34.0,31.0,-100.00,ESE,105,6.0,11.0,90,-99.99,,,-99.99,,2013-02-24 05:21:00,
2013-02-23 20:32:00,34.0,31.0,-100.00,ESE,105,6.0,11.0,90,-99.99,,,-99.99,,2013-02-24 05:32:00,
2013-02-23 20:42:00,34.0,31.0,-100.00,ESE,105,6.0,11.0,90,-99.99,,,-99.99,,2013-02-24 05:42:00,
2013-02-23 20:52:00,34.0,32.0,-100.00,SE,135,3.0,9.0,89,-99.99,,,-99.99,,2013-02-24 05:52:00,
2013-02-23 21:01:00,34.0,32.0,-100.00,SE,135,3.0,9.0,89,-99.99,,,-99.99,,2013-02-24 06:01:00,
2013-02-23 21:11:00,34.0,32.0,-100.00,SE,135,3.0,9.0,89,-99.99,,,-99.99,,2013-02-24 06:11:00,
2013-02-23 21:21:00,34.0,31.0,-100.00,ESE,115,6.0,9.0,89,-99.99,,,-99.99,,2013-02-24 06:21:00,
2013-02-23 21:32:00,34.0,31.0,-100.00,ESE,115,6.0,9.0,89,-99.99,,,-99.99,,2013-02-24 06:32:00,
2013-02-23 21:42:00,34.0,31.0,-100.00,ESE,115,6.0,9.0,89,-99.99,,,-99.99,,2013-02-24 06:42:00,
2013-02-23 21:52:00,34.0,31.0,-100.00,ESE,110,6.0,10.0,89,-99.99,,,-99.99,,2013-02-24 06:52:00,
2013-02-23 22:01:00,34.0,31.0,-100.00,ESE,110,6.0,10.0,89,-99.99,,,-99.99,,2013-02-24 07:01:00,
2013-02-23 22:11:00,34.0,31.0,-100.00,ESE,110,6.0,10.0,89,-99.99,,,-99.99,,2013-02-24 07:11:00,
2013-02-23 22:21:00,34.0,31.0,-100.00,ESE,115,5.0,7.0,88,-99.99,,,-99.99,,2013-02-24 07:21:00,
2013-02-23 22:32:00,34.0,31.0,-100.00,ESE,115,5.0,7.0,88,-99.99,,,-99.99,,2013-02-24 07:32:00,
2013-02-23 22:42:00,34.0,31.0,-100.00,ESE,115,5.0,7.0,88,-99.99,,,-99.99,,2013-02-24 07:42:00,
2013-02-23 22:52:00,34.0,31.0,-100.00,ESE,105,6.0,12.0,87,-99.99,,,-99.99,,2013-02-24 07:52:00,
2013-02-23 23:01:00,34.0,31.0,-100.00,ESE,105,6.0,12.0,87,-99.99,,,-99.99,,2013-02-24 08:01:00,
2013-02-23 23:11:00,34.0,31.0,-100.00,ESE,105,6.0,12.0,87,-99.99,,,-99.99,,2013-02-24 08:11:00,
2013-02-23 23:22:00,34.0,30.0,-100.00,East,85,3.0,9.0,86,-99.99,,,-99.99,,2013-02-24 08:22:00,
2013-02-23 23:31:00,34.0,30.0,-100.00,East,85,3.0,9.0,86,-99.99,,,-99.99,,2013-02-24 08:31:00,
2013-02-23 23:41:00,34.0,30.0,-100.00,East,85,3.0,9.0,86,-99.99,,,-99.99,,2013-02-24 08:41:00,
2013-02-23 23:53:00,33.0,30.0,-100.00,ESE,105,5.0,9.0,86,-99.99,,,-99.99,,2013-02-24 08:53:00,